Time;durP1;ratioP1;P1;durP2;ratioP2;P2;SDS_P1;SDS_P2;PMS_P1;PMS_P2;Temp;Humidity;BMP_temperature;BMP_pressure;BME280_temperature;BME280_humidity;BME280_pressure;Samples;Min_cycle;Max_cycle;Signal;HPM_P1;HPM_P2
2023/06/19 00:02:25;;;;;;;6.28;4.50;;;;;20.70;93939.00;;;;7400156;19;20466;-77
2023/06/19 00:05:06;;;;;;;14.30;4.55;;;;;20.70;93941.00;;;;7397265;19;20174;-78
2023/06/19 00:07:40;;;;;;;5.15;4.65;;;;;20.70;93938.00;;;;7400296;19;20630;-77
2023/06/19 00:10:14;;;;;;;4.90;4.35;;;;;20.80;93944.00;;;;7400776;19;20158;-77
2023/06/19 00:12:42;;;;;;;6.15;4.72;;;;;20.70;93943.00;;;;7401038;19;20145;-77
2023/06/19 00:15:16;;;;;;;5.05;4.55;;;;;20.60;93945.00;;;;7402193;19;20129;-77
2023/06/19 00:17:50;;;;;;;7.32;4.97;;;;;20.60;93941.00;;;;7398895;19;20158;-76
2023/06/19 00:20:24;;;;;;;5.55;5.03;;;;;20.70;93949.00;;;;7399940;19;20136;-76
2023/06/19 00:22:58;;;;;;;5.63;5.10;;;;;20.80;93938.00;;;;7400201;19;20148;-76
2023/06/19 00:25:32;;;;;;;5.40;4.90;;;;;20.60;93943.00;;;;7398799;19;20144;-76
2023/06/19 00:28:13;;;;;;;5.30;4.80;;;;;20.60;93939.00;;;;7398427;19;20145;-76
2023/06/19 00:30:47;;;;;;;4.78;4.38;;;;;20.60;93961.00;;;;7397320;19;20484;-76
2023/06/19 00:33:21;;;;;;;16.38;5.10;;;;;21.10;93996.00;;;;7394721;19;20601;-75
2023/06/19 00:35:54;;;;;;;8.60;4.28;;;;;21.10;94001.00;;;;7397362;19;20640;-75
2023/06/19 00:38:28;;;;;;;8.32;4.30;;;;;20.70;94004.00;;;;7398067;19;20132;-81
2023/06/19 00:40:56;;;;;;;7.18;3.95;;;;;20.60;94007.00;;;;7395814;19;20213;-77
2023/06/19 00:43:30;;;;;;;6.45;3.50;;;;;20.30;94014.00;;;;7395573;19;20162;-77
2023/06/19 00:46:04;;;;;;;4.25;3.85;;;;;20.40;94024.00;;;;7398383;19;20589;-76
2023/06/19 00:48:39;;;;;;;6.55;4.00;;;;;20.20;94020.00;;;;7396396;19;20132;-81
2023/06/19 00:51:07;;;;;;;4.20;3.67;;;;;20.00;94031.00;;;;7398442;19;20129;-81
2023/06/19 00:53:35;;;;;;;7.07;4.07;;;;;20.00;94022.00;;;;7395774;19;20145;-77
2023/06/19 00:56:09;;;;;;;7.05;4.13;;;;;19.90;94026.00;;;;7395472;19;20155;-81
2023/06/19 00:58:44;;;;;;;6.38;4.28;;;;;19.80;94022.00;;;;7395959;19;20212;-81
2023/06/19 01:01:11;;;;;;;9.50;4.20;;;;;19.70;94028.00;;;;7395135;19;20605;-79
2023/06/19 01:03:45;;;;;;;5.85;3.95;;;;;19.70;94034.00;;;;7391731;19;20180;-81
2023/06/19 01:06:26;;;;;;;4.63;4.22;;;;;19.50;94026.00;;;;7396933;19;20148;-80
2023/06/19 01:09:10;;;;;;;5.70;4.03;;;;;19.50;94023.00;;;;7397469;19;20149;-77
2023/06/19 01:11:48;;;;;;;5.25;3.50;;;;;19.40;94029.00;;;;7394901;19;20533;-76
2023/06/19 01:14:28;;;;;;;6.68;2.88;;;;;19.20;94032.00;;;;7395117;19;20140;-78
2023/06/19 01:16:56;;;;;;;3.05;2.60;;;;;19.10;94024.00;;;;7396816;19;20141;-81
2023/06/19 01:19:30;;;;;;;3.95;2.90;;;;;19.00;94025.00;;;;7394456;19;20148;-78
2023/06/19 01:22:05;;;;;;;4.47;3.30;;;;;18.90;94022.00;;;;7389692;19;20147;-76
2023/06/19 01:24:40;;;;;;;3.45;3.15;;;;;19.00;94023.00;;;;7395356;19;20158;-75
2023/06/19 01:27:14;;;;;;;3.78;3.17;;;;;18.90;94029.00;;;;7393504;19;20167;-81
2023/06/19 01:29:49;;;;;;;3.30;3.00;;;;;18.90;94030.00;;;;7392565;19;20154;-82
2023/06/19 01:32:54;;;;;;;3.30;2.67;;;;;19.00;94030.00;;;;7394216;19;20144;-77
2023/06/19 01:35:29;;;;;;;5.13;3.22;;;;;19.00;94012.00;;;;7395284;19;20529;-83
2023/06/19 01:38:05;;;;;;;4.35;2.88;;;;;19.00;94005.00;;;;7395073;19;20148;-78
2023/06/19 01:40:42;;;;;;;3.45;3.00;;;;;19.00;94008.00;;;;7395490;19;20133;-77
2023/06/19 01:43:18;;;;;;;3.30;3.00;;;;;19.10;94018.00;;;;7393665;19;20148;-77
2023/06/19 01:45:53;;;;;;;3.45;2.92;;;;;19.10;94016.00;;;;7395597;19;20120;-74
2023/06/19 01:48:27;;;;;;;5.40;3.00;;;;;19.10;94010.00;;;;7394692;19;20136;-74
2023/06/19 01:50:55;;;;;;;3.20;2.88;;;;;19.10;94005.00;;;;7394215;19;20612;-75
2023/06/19 01:53:31;;;;;;;5.65;2.80;;;;;18.80;94016.00;;;;7394383;19;20156;-76
2023/06/19 01:56:06;;;;;;;6.10;3.28;;;;;18.30;94009.00;;;;7394667;19;20144;-73
2023/06/19 01:58:33;;;;;;;6.43;3.45;;;;;17.80;94003.00;;;;7395441;19;20235;-75
2023/06/19 02:01:08;;;;;;;3.58;3.28;;;;;17.50;93996.00;;;;7394973;19;20468;-74
2023/06/19 02:03:36;;;;;;;4.53;4.13;;;;;17.30;94006.00;;;;7388753;19;20168;-73
2023/06/19 02:06:16;;;;;;;5.00;3.80;;;;;17.00;93997.00;;;;7389940;19;20577;-74
2023/06/19 02:08:48;;;;;;;7.13;3.92;;;;;16.70;94005.00;;;;7395040;19;20121;-74
2023/06/19 02:11:22;;;;;;;4.88;4.47;;;;;16.50;94009.00;;;;7394170;19;20133;-73
2023/06/19 02:13:57;;;;;;;7.35;4.20;;;;;16.30;94003.00;;;;7400706;19;20155;-74
2023/06/19 02:16:31;;;;;;;4.40;4.00;;;;;16.00;94009.00;;;;7401841;19;20515;-74
2023/06/19 02:19:00;;;;;;;4.78;4.15;;;;;16.00;94012.00;;;;7401073;19;20133;-74
2023/06/19 02:21:34;;;;;;;4.20;3.80;;;;;16.10;94013.00;;;;7401053;19;20139;-74
2023/06/19 02:24:02;;;;;;;3.95;3.60;;;;;16.20;94023.00;;;;7399202;19;20145;-73
2023/06/19 02:26:36;;;;;;;4.40;4.00;;;;;16.10;94020.00;;;;7401334;19;20120;-73
2023/06/19 02:29:04;;;;;;;4.28;3.50;;;;;16.10;94020.00;;;;7400061;19;20179;-73
2023/06/19 02:31:38;;;;;;;3.60;3.30;;;;;16.30;94021.00;;;;7400956;19;20616;-72
2023/06/19 02:34:14;;;;;;;3.30;3.00;;;;;16.30;94019.00;;;;7399789;19;20598;-73
2023/06/19 02:36:48;;;;;;;3.28;2.90;;;;;16.40;94018.00;;;;7398818;19;20132;-73
2023/06/19 02:39:22;;;;;;;3.30;3.00;;;;;16.80;94020.00;;;;7402268;19;20604;-74
2023/06/19 02:41:59;;;;;;;5.38;2.78;;;;;16.90;94013.00;;;;7399992;19;20155;-76
2023/06/19 02:44:33;;;;;;;2.65;2.35;;;;;17.00;94011.00;;;;7397145;19;20156;-73
2023/06/19 02:47:03;;;;;;;4.22;2.40;;;;;17.20;94012.00;;;;7401012;19;20601;-75
2023/06/19 02:49:37;;;;;;;2.50;2.30;;;;;17.30;94011.00;;;;7400384;19;20140;-76
2023/06/19 02:52:06;;;;;;;3.58;2.55;;;;;17.40;94010.00;;;;7397365;19;20174;-75
2023/06/19 02:54:39;;;;;;;2.35;2.15;;;;;17.50;94015.00;;;;7398377;19;20150;-79
2023/06/19 02:57:08;;;;;;;2.83;2.50;;;;;17.60;94010.00;;;;7399243;19;20484;-80
2023/06/19 02:59:43;;;;;;;3.10;2.20;;;;;17.80;94020.00;;;;7399816;19;20496;-80
2023/06/19 03:02:14;;;;;;;2.10;1.90;;;;;17.60;94012.00;;;;7399146;19;20196;-80
2023/06/19 03:04:54;;;;;;;2.03;1.83;;;;;17.60;94009.00;;;;7397540;19;20149;-80
2023/06/19 03:07:28;;;;;;;2.78;2.13;;;;;17.70;94022.00;;;;7400838;19;20159;-84
2023/06/19 03:10:03;;;;;;;2.45;2.25;;;;;17.80;94019.00;;;;7399661;19;20132;-79
2023/06/19 03:12:31;;;;;;;2.38;2.17;;;;;17.60;94021.00;;;;7400387;19;20535;-81
2023/06/19 03:15:00;;;;;;;2.75;2.55;;;;;17.70;94029.00;;;;7398494;19;20141;-81
2023/06/19 03:17:34;;;;;;;2.80;2.47;;;;;17.70;94037.00;;;;7398913;19;20171;-81
2023/06/19 03:20:11;;;;;;;2.50;2.30;;;;;17.90;94023.00;;;;7399856;19;20640;-79
2023/06/19 03:22:46;;;;;;;2.90;2.50;;;;;17.90;94022.00;;;;7399165;19;20143;-81
2023/06/19 03:25:14;;;;;;;2.78;2.28;;;;;17.80;94017.00;;;;7396134;19;20166;-77
2023/06/19 03:27:48;;;;;;;2.85;2.50;;;;;17.90;94015.00;;;;7396035;19;20647;-77
2023/06/19 03:30:18;;;;;;;3.40;2.13;;;;;18.10;94035.00;;;;7399421;19;20129;-80
2023/06/19 03:32:52;;;;;;;2.25;2.05;;;;;18.10;94027.00;;;;7394746;19;20141;-81
2023/06/19 03:35:28;;;;;;;2.58;2.38;;;;;18.10;94014.00;;;;7398373;19;20591;-79
2023/06/19 03:37:58;;;;;;;2.50;2.25;;;;;18.00;94018.00;;;;7399546;19;20125;-79
2023/06/19 03:40:26;;;;;;;3.08;2.55;;;;;17.90;94026.00;;;;7397457;19;20129;-79
2023/06/19 03:43:00;;;;;;;2.38;2.17;;;;;18.10;94030.00;;;;7397947;19;20160;-78
2023/06/19 03:45:27;;;;;;;2.63;2.42;;;;;18.10;94032.00;;;;7392554;19;20523;-80
2023/06/19 03:48:02;;;;;;;2.40;2.20;;;;;18.20;94025.00;;;;7396097;19;20144;-78
2023/06/19 03:50:30;;;;;;;2.45;2.20;;;;;18.20;94027.00;;;;7397742;19;20133;-78
2023/06/19 03:53:04;;;;;;;2.90;2.40;;;;;18.30;94030.00;;;;7393243;19;20132;-77
2023/06/19 03:55:38;;;;;;;2.38;2.17;;;;;18.30;94037.00;;;;7388231;19;20223;-79
2023/06/19 03:58:13;;;;;;;2.30;2.10;;;;;18.40;94032.00;;;;7398451;19;20157;-82
2023/06/19 04:00:49;;;;;;;3.03;2.17;;;;;18.30;94034.00;;;;7395779;19;20620;-82
2023/06/19 04:03:33;;;;;;;2.47;2.28;;;;;18.30;94038.00;;;;7394984;19;20271;-81
2023/06/19 04:06:07;;;;;;;2.83;2.38;;;;;18.20;94046.00;;;;7398058;19;20600;-77
2023/06/19 04:08:42;;;;;;;2.85;2.33;;;;;18.40;94032.00;;;;7397754;19;20155;-76
2023/06/19 04:11:10;;;;;;;2.50;2.30;;;;;18.50;94040.00;;;;7396495;19;20180;-76
2023/06/19 04:13:44;;;;;;;3.25;1.88;;;;;18.50;94052.00;;;;7397074;19;20155;-77
2023/06/19 04:16:19;;;;;;;2.40;2.20;;;;;18.70;94048.00;;;;7397904;19;20144;-75
2023/06/19 04:18:49;;;;;;;2.20;2.00;;;;;18.60;94047.00;;;;7397299;19;20141;-75
2023/06/19 04:21:23;;;;;;;2.33;2.13;;;;;18.60;94048.00;;;;7396727;19;20144;-77
2023/06/19 04:23:57;;;;;;;2.88;2.10;;;;;18.70;94050.00;;;;7397221;19;20555;-76
2023/06/19 04:26:31;;;;;;;2.30;1.75;;;;;18.70;94039.00;;;;7396349;19;20550;-74
2023/06/19 04:29:00;;;;;;;1.80;1.70;;;;;18.90;94036.00;;;;7395570;19;20570;-77
2023/06/19 04:31:40;;;;;;;3.75;2.00;;;;;18.80;94044.00;;;;7397141;19;20139;-75
2023/06/19 04:34:17;;;;;;;2.60;2.40;;;;;18.80;94043.00;;;;7380009;19;20142;-75
2023/06/19 04:36:51;;;;;;;1.90;1.80;;;;;18.80;94039.00;;;;7378102;19;20202;-76
2023/06/19 04:39:26;;;;;;;1.77;1.60;;;;;18.80;94042.00;;;;7383332;19;20631;-76
2023/06/19 04:41:53;;;;;;;2.40;2.20;;;;;18.90;94042.00;;;;7385238;19;20145;-77
2023/06/19 04:44:29;;;;;;;1.98;1.77;;;;;18.90;94037.00;;;;7384348;19;20151;-77
2023/06/19 04:47:00;;;;;;;2.40;2.20;;;;;19.00;94028.00;;;;7383856;19;20584;-76
2023/06/19 04:49:35;;;;;;;2.10;1.90;;;;;18.90;94029.00;;;;7386084;19;20129;-77
2023/06/19 04:52:03;;;;;;;2.05;1.95;;;;;19.00;94022.00;;;;7385177;19;20190;-74
2023/06/19 04:54:37;;;;;;;3.05;2.20;;;;;19.00;94026.00;;;;7385256;19;20175;-75
2023/06/19 04:57:11;;;;;;;2.55;2.15;;;;;19.10;94024.00;;;;7384237;19;20162;-78
2023/06/19 04:59:41;;;;;;;2.50;2.30;;;;;19.20;94025.00;;;;7386014;19;20141;-76
2023/06/19 05:02:16;;;;;;;2.30;2.10;;;;;19.20;94025.00;;;;7384741;19;20264;-77
2023/06/19 05:04:44;;;;;;;2.20;2.00;;;;;19.30;94031.00;;;;7382172;19;20607;-77
2023/06/19 05:07:24;;;;;;;2.25;2.05;;;;;19.40;94030.00;;;;7383653;19;20156;-77
2023/06/19 05:10:02;;;;;;;4.03;2.20;;;;;19.50;94031.00;;;;7384250;19;20192;-77
2023/06/19 05:12:38;;;;;;;2.55;2.35;;;;;19.50;94031.00;;;;7384777;19;20137;-74
2023/06/19 05:15:12;;;;;;;2.13;1.92;;;;;19.60;94032.00;;;;7382679;19;20174;-78
2023/06/19 05:17:46;;;;;;;2.28;2.08;;;;;19.50;94035.00;;;;7383528;19;20149;-73
2023/06/19 05:20:20;;;;;;;2.10;1.90;;;;;19.70;94035.00;;;;7382908;19;20149;-75
2023/06/19 05:22:50;;;;;;;2.30;2.10;;;;;19.70;94039.00;;;;7384451;19;20494;-77
2023/06/19 05:25:25;;;;;;;2.30;2.10;;;;;19.60;94042.00;;;;7382448;19;20156;-75
2023/06/19 05:27:52;;;;;;;2.15;1.80;;;;;19.60;94041.00;;;;7381519;19;20136;-75
2023/06/19 05:30:30;;;;;;;2.15;1.95;;;;;19.60;94045.00;;;;7381122;19;20865;-74
2023/06/19 05:33:04;;;;;;;2.20;2.05;;;;;19.60;94042.00;;;;7383111;19;20140;-74
2023/06/19 05:35:38;;;;;;;2.03;1.92;;;;;19.70;94036.00;;;;7383410;19;20576;-76
2023/06/19 05:38:05;;;;;;;2.55;1.90;;;;;19.70;94036.00;;;;7382040;19;20152;-75
2023/06/19 05:40:40;;;;;;;2.20;2.00;;;;;19.60;94041.00;;;;7383373;19;20128;-75
2023/06/19 05:43:07;;;;;;;1.98;1.88;;;;;19.70;94031.00;;;;7381595;19;20220;-74
2023/06/19 05:45:42;;;;;;;2.10;1.90;;;;;19.70;94036.00;;;;7380210;19;20132;-73
2023/06/19 05:48:16;;;;;;;3.95;2.22;;;;;19.70;94041.00;;;;7382668;19;20155;-75
2023/06/19 05:50:45;;;;;;;2.35;2.15;;;;;19.70;94036.00;;;;7381225;19;20149;-75
2023/06/19 05:53:20;;;;;;;2.30;2.10;;;;;19.70;94040.00;;;;7380405;19;20169;-74
2023/06/19 05:55:47;;;;;;;1.98;1.60;;;;;19.80;94039.00;;;;7381398;19;20153;-73
2023/06/19 05:58:23;;;;;;;2.35;2.15;;;;;19.90;94044.00;;;;7381506;19;20628;-73
2023/06/19 06:00:57;;;;;;;2.03;1.90;;;;;19.90;94048.00;;;;7382766;19;20535;-73
2023/06/19 06:03:31;;;;;;;1.90;1.80;;;;;19.90;94053.00;;;;7379951;19;20617;-74
2023/06/19 06:06:05;;;;;;;2.20;2.00;;;;;19.90;94053.00;;;;7382161;19;20181;-73
2023/06/19 06:08:40;;;;;;;2.42;2.22;;;;;19.90;94061.00;;;;7382069;19;20612;-75
2023/06/19 06:11:11;;;;;;;10.43;8.60;;;;;20.00;94067.00;;;;7379360;19;20148;-74
2023/06/19 06:13:45;;;;;;;3.75;3.15;;;;;20.10;94061.00;;;;7381960;19;20133;-75
2023/06/19 06:16:14;;;;;;;3.40;3.10;;;;;20.30;94068.00;;;;7381023;19;20458;-73
2023/06/19 06:18:48;;;;;;;3.42;2.97;;;;;20.40;94072.00;;;;7380063;19;20162;-73
2023/06/19 06:21:22;;;;;;;3.08;2.83;;;;;20.60;94086.00;;;;7379472;19;20561;-73
2023/06/19 06:23:57;;;;;;;3.20;2.90;;;;;20.60;94090.00;;;;7380749;19;20155;-73
2023/06/19 06:26:27;;;;;;;3.60;3.30;;;;;20.50;94098.00;;;;7380747;19;20153;-77
2023/06/19 06:29:02;;;;;;;4.32;3.00;;;;;20.50;94098.00;;;;7381569;19;20166;-76
2023/06/19 06:31:29;;;;;;;7.75;4.10;;;;;20.80;94105.00;;;;7381128;19;20168;-77
2023/06/19 06:34:04;;;;;;;3.42;3.13;;;;;21.00;94090.00;;;;7380764;19;20160;-78
2023/06/19 06:36:31;;;;;;;3.95;3.53;;;;;20.90;94102.00;;;;7378403;19;20585;-76
2023/06/19 06:39:19;;;;;;;4.47;3.55;;;;;21.10;94103.00;;;;7379188;19;20212;-76
2023/06/19 06:41:46;;;;;;;3.83;3.42;;;;;21.00;94100.00;;;;7379854;19;20163;-76
2023/06/19 06:44:20;;;;;;;4.30;3.90;;;;;21.10;94110.00;;;;7378500;19;20133;-76
2023/06/19 06:46:55;;;;;;;3.95;3.30;;;;;21.40;94100.00;;;;7378550;19;20521;-78
2023/06/19 06:49:30;;;;;;;5.35;3.42;;;;;21.80;94092.00;;;;7380833;19;20143;-77
2023/06/19 06:52:05;;;;;;;3.67;3.35;;;;;22.20;94081.00;;;;7380749;19;21403;-77
2023/06/19 06:54:39;;;;;;;3.72;3.42;;;;;22.40;94102.00;;;;7379330;19;20152;-77
2023/06/19 06:57:13;;;;;;;3.92;3.63;;;;;22.20;94107.00;;;;7378770;19;20658;-77
2023/06/19 07:00:09;;;;;;;4.05;3.30;;;;;22.10;94110.00;;;;7385539;19;20256;-76
2023/06/19 07:02:50;;;;;;;4.95;3.38;;;;;21.80;94109.00;;;;7386465;19;20184;-75
2023/06/19 07:05:19;;;;;;;3.72;3.30;;;;;21.80;94120.00;;;;7384902;19;20152;-76
2023/06/19 07:08:00;;;;;;;3.63;3.30;;;;;22.10;94112.00;;;;7386311;19;20621;-77
2023/06/19 07:10:34;;;;;;;3.42;3.05;;;;;22.80;94107.00;;;;7385071;19;20153;-78
2023/06/19 07:13:09;;;;;;;5.25;3.17;;;;;23.80;94111.00;;;;7386160;19;20136;-78
2023/06/19 07:15:37;;;;;;;3.50;3.20;;;;;24.10;94116.00;;;;7385497;19;20510;-77
2023/06/19 07:18:11;;;;;;;3.70;3.38;;;;;24.40;94120.00;;;;7383966;19;20140;-77
2023/06/19 07:20:40;;;;;;;3.53;3.22;;;;;24.60;94116.00;;;;7385559;19;20651;-76
2023/06/19 07:23:19;;;;;;;3.85;3.38;;;;;24.70;94115.00;;;;7387841;19;20132;-77
2023/06/19 07:25:53;;;;;;;3.47;3.17;;;;;24.90;94111.00;;;;7383917;19;20228;-77
2023/06/19 07:28:27;;;;;;;3.15;2.85;;;;;25.10;94119.00;;;;7384959;19;20143;-77
2023/06/19 07:31:02;;;;;;;5.00;3.03;;;;;24.80;94117.00;;;;7383549;19;20239;-77
2023/06/19 07:33:37;;;;;;;3.22;2.92;;;;;25.40;94123.00;;;;7384831;19;20204;-77
2023/06/19 07:36:06;;;;;;;2.95;2.75;;;;;25.80;94121.00;;;;7386873;19;20153;-76
2023/06/19 07:38:40;;;;;;;3.08;2.88;;;;;25.90;94132.00;;;;7389793;19;20148;-74
2023/06/19 07:41:14;;;;;;;3.38;3.08;;;;;25.60;94144.00;;;;7388503;19;20465;-75
2023/06/19 07:43:51;;;;;;;2.92;2.72;;;;;25.30;94135.00;;;;7387178;19;20128;-76
2023/06/19 07:46:19;;;;;;;3.55;3.00;;;;;25.00;94127.00;;;;7385601;19;20181;-76
2023/06/19 07:48:47;;;;;;;3.42;3.10;;;;;25.30;94132.00;;;;7386515;19;20181;-76
2023/06/19 07:51:25;;;;;;;3.40;3.10;;;;;25.30;94147.00;;;;7385010;19;20581;-75
2023/06/19 07:53:54;;;;;;;3.20;2.90;;;;;25.20;94136.00;;;;7386425;19;20535;-79
2023/06/19 07:56:32;;;;;;;3.15;2.95;;;;;25.10;94134.00;;;;7386922;19;20454;-77
2023/06/19 07:59:00;;;;;;;2.63;1.70;;;;;25.40;94125.00;;;;7387326;19;20473;-79
2023/06/19 08:01:34;;;;;;;2.03;1.80;;;;;25.70;94122.00;;;;7384927;19;20646;-79
2023/06/19 08:04:02;;;;;;;1.77;1.67;;;;;26.00;94114.00;;;;7388786;19;20150;-80
2023/06/19 08:06:42;;;;;;;1.90;1.70;;;;;25.80;94140.00;;;;7387820;19;20183;-75
2023/06/19 08:09:17;;;;;;;1.80;1.70;;;;;25.60;94144.00;;;;7384410;19;20136;-75
2023/06/19 08:11:47;;;;;;;1.73;1.50;;;;;25.40;94144.00;;;;7387887;19;20605;-79
2023/06/19 08:14:21;;;;;;;2.63;2.03;;;;;25.80;94147.00;;;;7388800;19;20139;-76
2023/06/19 08:16:49;;;;;;;1.75;1.65;;;;;25.50;94143.00;;;;7389178;19;20129;-77
2023/06/19 08:19:26;;;;;;;2.20;2.00;;;;;25.60;94149.00;;;;7385758;19;20158;-77
2023/06/19 08:22:01;;;;;;;2.30;1.90;;;;;25.50;94159.00;;;;7391266;19;20174;-77
2023/06/19 08:24:28;;;;;;;2.10;1.90;;;;;24.70;94160.00;;;;7387960;19;20149;-78
2023/06/19 08:27:03;;;;;;;2.42;2.22;;;;;24.50;94159.00;;;;7386601;19;20121;-75
2023/06/19 08:29:38;;;;;;;2.38;2.03;;;;;24.50;94151.00;;;;7387709;19;20129;-74
2023/06/19 08:32:12;;;;;;;1.90;1.80;;;;;25.00;94097.00;;;;7384173;19;20136;-74
2023/06/19 08:34:39;;;;;;;2.08;1.80;;;;;26.20;94144.00;;;;7385771;19;20133;-75
2023/06/19 08:37:18;;;;;;;2.80;2.25;;;;;26.40;94128.00;;;;7384373;19;20152;-76
2023/06/19 08:39:56;;;;;;;2.80;2.60;;;;;26.60;94124.00;;;;7387340;19;20184;-77
2023/06/19 08:42:23;;;;;;;2.72;2.53;;;;;26.50;94118.00;;;;7386165;19;20159;-79
2023/06/19 08:45:07;;;;;;;2.55;2.35;;;;;26.00;94137.00;;;;7385472;19;20575;-74
2023/06/19 08:47:44;;;;;;;6.32;2.60;;;;;26.20;94126.00;;;;7385951;19;20188;-75
2023/06/19 08:50:15;;;;;;;3.78;2.33;;;;;27.30;94115.00;;;;7383828;19;20156;-75
2023/06/19 08:52:50;;;;;;;2.72;2.50;;;;;27.50;94118.00;;;;7386420;19;20148;-77
2023/06/19 08:55:25;;;;;;;3.05;2.20;;;;;29.10;94114.00;;;;7384713;19;20158;-79
2023/06/19 08:58:00;;;;;;;2.60;2.40;;;;;29.30;94126.00;;;;7385320;19;21197;-75
2023/06/19 09:00:35;;;;;;;2.40;2.20;;;;;28.40;94140.00;;;;7387893;19;20128;-77
2023/06/19 09:03:04;;;;;;;2.72;2.53;;;;;27.10;94144.00;;;;7389504;19;20156;-77
2023/06/19 09:05:49;;;;;;;2.33;2.13;;;;;27.60;94138.00;;;;7387027;19;20247;-76
2023/06/19 09:08:26;;;;;;;2.67;2.40;;;;;26.20;94170.00;;;;7386972;19;20192;-79
2023/06/19 09:11:02;;;;;;;3.08;2.55;;;;;25.40;94178.00;;;;7387263;19;20140;-76
2023/06/19 09:13:37;;;;;;;4.90;2.47;;;;;25.00;94149.00;;;;7387723;19;20152;-76
2023/06/19 09:16:07;;;;;;;4.13;2.60;;;;;26.40;94137.00;;;;7388007;19;20152;-78
2023/06/19 09:18:48;;;;;;;2.65;2.45;;;;;26.10;94137.00;;;;7388278;19;20165;-79
2023/06/19 09:21:21;;;;;;;2.90;2.58;;;;;26.60;94135.00;;;;7383302;19;20220;-81
2023/06/19 09:24:07;;;;;;;2.60;2.40;;;;;27.00;94140.00;;;;7383910;19;20181;-77
2023/06/19 09:26:41;;;;;;;4.05;2.60;;;;;27.10;94137.00;;;;7390526;19;20145;-79
2023/06/19 09:29:19;;;;;;;2.63;2.42;;;;;27.00;94143.00;;;;7388384;19;20125;-81
2023/06/19 09:31:56;;;;;;;3.15;2.85;;;;;26.70;94142.00;;;;7385540;19;20132;-84
2023/06/19 09:34:23;;;;;;;4.82;3.00;;;;;27.40;94129.00;;;;7381626;19;20171;-75
2023/06/19 09:36:58;;;;;;;3.72;3.28;;;;;28.70;94160.00;;;;7381632;19;20504;-79
2023/06/19 09:39:28;;;;;;;3.45;3.15;;;;;27.10;94154.00;;;;7383006;19;20141;-77
2023/06/19 09:42:06;;;;;;;3.28;3.03;;;;;27.40;94154.00;;;;7383764;19;20135;-77
2023/06/19 09:44:42;;;;;;;3.50;3.10;;;;;27.00;94158.00;;;;7382361;19;20159;-75
2023/06/19 09:47:25;;;;;;;3.33;3.03;;;;;25.90;94149.00;;;;7382249;19;20148;-85
2023/06/19 09:50:00;;;;;;;3.30;3.00;;;;;26.60;94134.00;;;;7382707;19;20164;-80
2023/06/19 09:52:33;;;;;;;3.10;2.80;;;;;27.40;94123.00;;;;7381882;19;20515;-79
2023/06/19 09:55:12;;;;;;;3.35;3.05;;;;;27.70;94123.00;;;;7381213;19;20165;-79
2023/06/19 09:57:48;;;;;;;3.92;2.50;;;;;27.80;94120.00;;;;7384028;19;20158;-79
2023/06/19 10:00:26;;;;;;;3.30;3.00;;;;;27.60;94146.00;;;;7382070;19;20511;-80
2023/06/19 10:02:57;;;;;;;3.72;3.13;;;;;26.80;94135.00;;;;7381821;19;20613;-82
2023/06/19 10:05:40;;;;;;;3.20;2.80;;;;;27.90;94140.00;;;;7379284;19;20501;-81
2023/06/19 10:08:48;;;;;;;3.40;2.55;;;;;26.60;94141.00;;;;7382924;19;20541;-77
2023/06/19 10:11:24;;;;;;;2.95;2.60;;;;;28.00;94133.00;;;;7382405;19;20143;-80
2023/06/19 10:14:07;;;;;;;3.75;2.70;;;;;26.30;94133.00;;;;7383558;19;20152;-84
2023/06/19 10:16:42;;;;;;;5.38;2.97;;;;;26.60;94134.00;;;;7383340;19;20614;-79
2023/06/19 10:19:22;;;;;;;3.25;2.95;;;;;26.90;94123.00;;;;7384815;19;20141;-76
2023/06/19 10:22:03;;;;;;;5.70;2.60;;;;;28.10;94107.00;;;;7387823;19;20124;-86
2023/06/19 10:24:37;;;;;;;2.85;2.60;;;;;28.70;94115.00;;;;7382207;19;20206;-83
2023/06/19 10:27:24;;;;;;;2.58;2.35;;;;;28.90;94106.00;;;;7382020;19;20131;-76
2023/06/19 10:30:00;;;;;;;2.75;2.55;;;;;29.10;94101.00;;;;7382037;19;20198;-77
2023/06/19 10:32:36;;;;;;;3.13;2.88;;;;;28.90;94101.00;;;;7382665;19;20207;-82
2023/06/19 10:35:12;;;;;;;2.88;2.67;;;;;29.80;94098.00;;;;7387037;19;20149;-82
2023/06/19 10:37:47;;;;;;;3.85;2.53;;;;;29.00;94095.00;;;;7390179;19;20149;-81
2023/06/19 10:40:21;;;;;;;2.60;2.40;;;;;29.60;94102.00;;;;7386219;19;20199;-80
2023/06/19 10:42:52;;;;;;;3.05;2.80;;;;;29.70;94100.00;;;;7386942;19;20191;-75
2023/06/19 10:45:29;;;;;;;2.97;2.67;;;;;29.40;94095.00;;;;7390155;19;20212;-77
2023/06/19 10:47:57;;;;;;;3.40;2.88;;;;;29.50;94089.00;;;;7389182;19;20608;-77
2023/06/19 10:50:38;;;;;;;2.75;2.55;;;;;29.80;94091.00;;;;7388820;19;20156;-78
2023/06/19 10:53:06;;;;;;;2.85;2.55;;;;;29.10;94095.00;;;;7389554;19;20215;-75
2023/06/19 10:55:42;;;;;;;2.67;2.47;;;;;30.10;94090.00;;;;7393465;19;20139;-77
2023/06/19 10:58:16;;;;;;;3.80;2.90;;;;;30.10;94092.00;;;;7391545;19;21543;-83
2023/06/19 11:00:50;;;;;;;3.17;2.92;;;;;29.80;94117.00;;;;7388457;19;20719;-76
2023/06/19 11:03:24;;;;;;;2.65;2.45;;;;;28.80;94083.00;;;;7387523;19;21059;-77
2023/06/19 11:06:11;;;;;;;2.80;2.60;;;;;28.90;94126.00;;;;7386078;19;20180;-80
2023/06/19 11:08:52;;;;;;;3.00;2.78;;;;;27.50;94113.00;;;;7385913;19;20160;-76
2023/06/19 11:11:39;;;;;;;3.45;3.15;;;;;27.00;94104.00;;;;7386626;19;20137;-78
2023/06/19 11:14:10;;;;;;;2.95;2.70;;;;;27.30;94119.00;;;;7388116;19;20129;-76
2023/06/19 11:16:46;;;;;;;2.80;2.60;;;;;27.00;94113.00;;;;7386691;19;20366;-76
2023/06/19 11:19:19;;;;;;;3.15;2.63;;;;;28.00;94103.00;;;;7387084;19;20137;-76
2023/06/19 11:22:02;;;;;;;3.13;2.83;;;;;28.40;94115.00;;;;7384708;19;20152;-76
2023/06/19 11:24:30;;;;;;;3.45;3.15;;;;;28.40;94108.00;;;;7386021;19;20153;-75
2023/06/19 11:27:05;;;;;;;2.92;2.72;;;;;28.10;94116.00;;;;7385190;19;20683;-76
2023/06/19 11:29:36;;;;;;;3.72;3.20;;;;;28.40;94098.00;;;;7384853;19;20148;-76
2023/06/19 11:32:17;;;;;;;2.90;2.70;;;;;28.70;94097.00;;;;7387169;19;20128;-75
2023/06/19 11:34:54;;;;;;;3.03;2.83;;;;;29.70;94087.00;;;;7385848;19;20150;-77
2023/06/19 11:37:22;;;;;;;3.30;3.00;;;;;29.40;94083.00;;;;7386746;19;20136;-78
2023/06/19 11:39:57;;;;;;;3.17;2.88;;;;;29.60;94082.00;;;;7385702;19;20148;-76
2023/06/19 11:42:25;;;;;;;3.05;2.80;;;;;30.10;94076.00;;;;7386924;19;20624;-76
2023/06/19 11:45:06;;;;;;;3.90;3.20;;;;;29.90;94075.00;;;;7386215;19;20149;-77
2023/06/19 11:47:45;;;;;;;3.85;2.85;;;;;31.30;94066.00;;;;7384306;19;20136;-76
2023/06/19 11:50:15;;;;;;;2.60;2.40;;;;;31.60;94067.00;;;;7385321;19;20501;-77
2023/06/19 11:52:51;;;;;;;2.85;2.65;;;;;33.00;94050.00;;;;7384991;19;20149;-77
2023/06/19 11:55:19;;;;;;;3.80;2.97;;;;;32.30;94046.00;;;;7385717;19;20153;-76
2023/06/19 11:57:47;;;;;;;3.20;2.90;;;;;33.20;94049.00;;;;7384329;19;20156;-76
2023/06/19 12:00:21;;;;;;;3.10;2.80;;;;;32.80;94053.00;;;;7385626;19;20880;-75
2023/06/19 12:02:57;;;;;;;3.33;2.92;;;;;32.80;94045.00;;;;7385114;19;20635;-75
2023/06/19 12:05:31;;;;;;;5.75;3.28;;;;;33.50;94090.00;;;;7383333;19;20152;-75
2023/06/19 12:08:12;;;;;;;5.18;3.22;;;;;32.60;94088.00;;;;7385485;19;20150;-75
2023/06/19 12:10:47;;;;;;;4.55;3.38;;;;;31.30;94088.00;;;;7386459;19;20136;-76
2023/06/19 12:13:15;;;;;;;4.13;3.22;;;;;30.60;94095.00;;;;7382744;19;20711;-77
2023/06/19 12:15:50;;;;;;;4.28;3.53;;;;;30.00;94104.00;;;;7384868;19;20156;-78
2023/06/19 12:18:20;;;;;;;3.60;3.30;;;;;29.80;94100.00;;;;7386423;19;20129;-77
2023/06/19 12:20:56;;;;;;;3.70;3.40;;;;;30.10;94101.00;;;;7384834;19;20201;-76
2023/06/19 12:23:24;;;;;;;3.88;3.30;;;;;29.60;94100.00;;;;7384817;19;20208;-75
2023/06/19 12:25:59;;;;;;;3.50;3.20;;;;;28.90;94088.00;;;;7385180;19;20215;-76
2023/06/19 12:28:27;;;;;;;3.75;3.45;;;;;30.10;94092.00;;;;7385383;19;20481;-76
2023/06/19 12:31:02;;;;;;;7.22;3.88;;;;;30.40;94094.00;;;;7383890;19;20200;-75
2023/06/19 12:33:33;;;;;;;3.88;3.47;;;;;29.70;94101.00;;;;7386099;19;20192;-75
2023/06/19 12:36:08;;;;;;;4.05;3.75;;;;;29.00;94103.00;;;;7384843;19;20145;-75
2023/06/19 12:38:38;;;;;;;4.38;3.53;;;;;28.20;94102.00;;;;7384352;19;21005;-75
2023/06/19 12:41:13;;;;;;;3.60;3.30;;;;;28.60;94093.00;;;;7384218;19;20227;-74
2023/06/19 12:43:47;;;;;;;4.00;3.60;;;;;28.60;94084.00;;;;7383999;19;20145;-74
2023/06/19 12:46:21;;;;;;;4.15;3.60;;;;;28.30;94088.00;;;;7382554;19;20199;-75
2023/06/19 12:48:50;;;;;;;4.80;3.65;;;;;27.90;94093.00;;;;7383211;19;20141;-75
2023/06/19 12:51:26;;;;;;;3.80;3.50;;;;;28.00;94099.00;;;;7383417;19;20140;-75
2023/06/19 12:53:54;;;;;;;4.68;3.45;;;;;28.10;94086.00;;;;7383966;19;20588;-74